createdAt,value
2023-03-21T00:00:11.320Z,95667.78
2023-03-21T00:02:39.029Z,95678.09
2023-03-21T00:05:15.558Z,95672.69
2023-03-21T00:07:43.990Z,95655.41
2023-03-21T00:10:18.142Z,95658.09
2023-03-21T00:12:50.325Z,95655.66
2023-03-21T00:15:20.560Z,95649.47
2023-03-21T00:17:50.839Z,95641.38
2023-03-21T00:20:20.738Z,95638.66
2023-03-21T00:22:48.440Z,95644.88
2023-03-21T00:25:16.168Z,95644.06
2023-03-21T00:28:01.097Z,95638.66
2023-03-21T00:30:31.563Z,95637.84
2023-03-21T00:33:03.562Z,95636.50
2023-03-21T00:35:57.996Z,95635.97
2023-03-21T00:38:24.220Z,95639.19
2023-03-21T00:40:52.558Z,95633.47
2023-03-21T00:43:23.480Z,95631.84
2023-03-21T00:45:52.610Z,95623.75
2023-03-21T00:48:20.755Z,95622.09
2023-03-21T00:50:52.393Z,95634.50
2023-03-21T00:53:20.065Z,95629.13
2023-03-21T00:55:47.805Z,95620.75
2023-03-21T00:58:15.548Z,95627.22
2023-03-21T01:00:43.787Z,95628.03
2023-03-21T01:03:23.689Z,95615.09
2023-03-21T01:06:06.995Z,95617.25
2023-03-21T01:08:50.589Z,95617.56
2023-03-21T01:11:23.063Z,95616.53
2023-03-21T01:13:56.272Z,95605.22
2023-03-21T01:16:30.317Z,95604.16
2023-03-21T01:18:58.373Z,95608.47
2023-03-21T01:21:28.043Z,95604.41
2023-03-21T01:23:55.865Z,95598.44
2023-03-21T01:26:23.610Z,95606.25
2023-03-21T01:28:51.498Z,95594.63
2023-03-21T01:31:19.436Z,95601.06
2023-03-21T01:33:47.918Z,95594.84
2023-03-21T01:36:21.833Z,95599.44
2023-03-21T01:38:52.171Z,95592.44
2023-03-21T01:41:28.453Z,95594.31
2023-03-21T01:44:01.656Z,95593.25
2023-03-21T01:46:47.733Z,95585.41
2023-03-21T01:49:27.080Z,95587.28
2023-03-21T01:52:11.558Z,95587.81
2023-03-21T01:54:42.970Z,95583.22
2023-03-21T01:57:17.353Z,95575.09
2023-03-21T01:59:49.980Z,95576.69
2023-03-21T02:02:23.288Z,95578.00
2023-03-21T02:04:55.937Z,95577.19
2023-03-21T02:07:28.887Z,95586.66
2023-03-21T02:09:59.759Z,95568.84
2023-03-21T02:12:28.705Z,95574.81
2023-03-21T02:14:57.145Z,95572.63
2023-03-21T02:17:34.349Z,95578.00
2023-03-21T02:20:37.230Z,95579.38
2023-03-21T02:23:37.939Z,95570.47
2023-03-21T02:26:45.079Z,95576.94
2023-03-21T02:29:33.896Z,95581.25
2023-03-21T02:32:22.603Z,95580.16
2023-03-21T02:35:24.603Z,95583.41
2023-03-21T02:38:00.894Z,95581.47
2023-03-21T02:40:34.821Z,95584.69
2023-03-21T02:43:09.338Z,95587.91
2023-03-21T02:45:50.705Z,95594.09
2023-03-21T02:48:31.207Z,95587.84
2023-03-21T02:51:06.145Z,95595.69
2023-03-21T02:53:39.624Z,95590.59
2023-03-21T02:56:10.780Z,95587.03
2023-03-21T02:58:41.017Z,95586.78
2023-03-21T03:01:09.515Z,95586.47
2023-03-21T03:03:39.441Z,95592.19
2023-03-21T03:06:17.134Z,95591.94
2023-03-21T03:09:02.604Z,95578.72
2023-03-21T03:11:32.434Z,95577.63
2023-03-21T03:17:19.310Z,95581.66
2023-03-21T03:20:15.463Z,95570.09
2023-03-21T03:22:53.432Z,95574.13
2023-03-21T03:25:41.528Z,95576.84
2023-03-21T03:28:11.100Z,95575.53
2023-03-21T03:30:45.036Z,95570.13
2023-03-21T03:33:23.501Z,95571.22
2023-03-21T03:36:04.359Z,95566.31
2023-03-21T03:38:34.645Z,95566.31
2023-03-21T03:41:10.332Z,95567.91
2023-03-21T03:43:44.325Z,95563.03
2023-03-21T03:46:18.001Z,95556.50
2023-03-21T03:48:49.957Z,95563.50
2023-03-21T03:51:22.501Z,95567.28
2023-03-21T03:53:55.391Z,95558.69
2023-03-21T03:56:25.414Z,95563.06
2023-03-21T03:58:53.357Z,95569.81
2023-03-21T04:01:22.105Z,95572.78
2023-03-21T04:03:58.403Z,95564.19
2023-03-21T04:06:32.330Z,95574.13
2023-03-21T04:09:03.471Z,95574.13
2023-03-21T04:11:34.553Z,95569.53
2023-03-21T04:14:02.254Z,95562.81
2023-03-21T04:16:32.818Z,95563.56
2023-03-21T04:19:02.089Z,95563.31
2023-03-21T04:21:29.982Z,95562.50
2023-03-21T04:23:57.683Z,95560.59
2023-03-21T04:26:25.601Z,95568.41
2023-03-21T04:28:54.768Z,95553.00
2023-03-21T04:31:26.422Z,95551.63
2023-03-21T04:33:55.878Z,95556.22
2023-03-21T04:36:27.403Z,95561.63
2023-03-21T04:38:57.160Z,95566.69
2023-03-21T04:41:24.942Z,95559.13
2023-03-21T04:43:54.602Z,95565.84
2023-03-21T04:46:22.404Z,95564.72
2023-03-21T04:48:50.498Z,95563.66
2023-03-21T04:51:18.234Z,95553.16
2023-03-21T04:53:49.335Z,95549.88
2023-03-21T04:56:17.742Z,95557.03
2023-03-21T04:58:45.793Z,95554.91
2023-03-21T05:01:14.935Z,95562.50
2023-03-21T05:03:42.669Z,95564.66
2023-03-21T05:06:11.337Z,95566.75
2023-03-21T05:08:39.135Z,95560.25
2023-03-21T05:11:07.232Z,95562.75
2023-03-21T05:13:34.921Z,95556.03
2023-03-21T05:16:02.605Z,95556.84
2023-03-21T05:18:34.977Z,95557.84
2023-03-21T05:21:04.168Z,95559.44
2023-03-21T05:23:31.886Z,95557.84
2023-03-21T05:25:59.616Z,95563.22
2023-03-21T05:28:31.528Z,95559.44
2023-03-21T05:30:59.356Z,95565.13
2023-03-21T05:33:27.102Z,95563.50
2023-03-21T05:35:56.310Z,95564.06
2023-03-21T05:38:24.122Z,95561.66
2023-03-21T05:40:53.014Z,95559.88
2023-03-21T05:43:20.798Z,95552.06
2023-03-21T05:45:48.970Z,95560.41
2023-03-21T05:48:16.722Z,95557.69
2023-03-21T05:50:44.457Z,95563.66
2023-03-21T05:53:13.614Z,95558.56
2023-03-21T05:55:41.271Z,95568.63
2023-03-21T05:58:08.984Z,95567.03
2023-03-21T06:00:36.654Z,95567.13
2023-03-21T06:03:04.539Z,95573.97
2023-03-21T06:05:32.224Z,95572.69
2023-03-21T06:08:00.000Z,95570.56
2023-03-21T06:10:29.090Z,95564.47
2023-03-21T06:12:56.783Z,95565.03
2023-03-21T06:15:25.268Z,95559.38
2023-03-21T06:17:52.946Z,95565.06
2023-03-21T06:20:20.910Z,95565.66
2023-03-21T06:22:48.633Z,95565.91
2023-03-21T06:25:16.759Z,95560.53
2023-03-21T06:27:45.848Z,95572.47
2023-03-21T06:30:14.533Z,95569.50
2023-03-21T06:32:42.280Z,95567.06
2023-03-21T06:35:10.471Z,95569.50
2023-03-21T06:37:38.445Z,95564.66
2023-03-21T06:40:09.658Z,95569.22
2023-03-21T06:42:37.415Z,95562.72
2023-03-21T06:45:09.813Z,95563.81
2023-03-21T06:47:37.530Z,95565.69
2023-03-21T06:50:08.378Z,95559.47
2023-03-21T06:52:36.109Z,95565.69
2023-03-21T06:55:03.859Z,95561.03
2023-03-21T06:57:31.555Z,95556.16
2023-03-21T06:59:59.342Z,95565.63
2023-03-21T07:02:28.428Z,95559.63
2023-03-21T07:04:56.816Z,95557.97
2023-03-21T07:07:27.142Z,95551.44
2023-03-21T07:09:54.778Z,95552.72
2023-03-21T07:12:24.255Z,95553.00
2023-03-21T07:14:52.157Z,95546.44
2023-03-21T07:17:19.883Z,95548.56
2023-03-21T07:19:52.077Z,95548.03
2023-03-21T07:22:20.531Z,95548.72
2023-03-21T07:24:55.840Z,95550.88
2023-03-21T07:27:30.288Z,95554.59
2023-03-21T07:29:58.017Z,95537.97
2023-03-21T07:32:30.103Z,95544.16
2023-03-21T07:35:01.563Z,95551.28
2023-03-21T07:37:29.538Z,95545.31
2023-03-21T07:39:57.438Z,95548.56
2023-03-21T07:42:25.308Z,95552.03
2023-03-21T07:44:54.997Z,95557.41
2023-03-21T07:47:22.745Z,95554.06
2023-03-21T07:49:51.196Z,95544.38
2023-03-21T07:52:20.314Z,95544.06
2023-03-21T07:54:48.020Z,95538.91
2023-03-21T07:57:15.788Z,95537.13
2023-03-21T07:59:43.490Z,95548.53
2023-03-21T08:02:14.478Z,95532.91
2023-03-21T08:04:42.164Z,95540.94
2023-03-21T08:07:10.318Z,95532.19
2023-03-21T08:09:39.466Z,95541.91
2023-03-21T08:12:08.537Z,95541.81
2023-03-21T08:14:37.006Z,95541.81
2023-03-21T08:17:05.347Z,95546.72
2023-03-21T08:19:33.229Z,95546.63
2023-03-21T08:22:01.329Z,95542.69
2023-03-21T08:24:30.117Z,95540.25
2023-03-21T08:26:59.244Z,95539.19
2023-03-21T08:29:27.106Z,95535.81
2023-03-21T08:31:54.919Z,95536.34
2023-03-21T08:34:23.153Z,95529.94
2023-03-21T08:36:51.135Z,95532.09
2023-03-21T08:39:19.354Z,95529.25
2023-03-21T08:41:47.126Z,95532.09
2023-03-21T08:44:17.088Z,95537.06
2023-03-21T08:46:45.009Z,95518.91
2023-03-21T08:49:12.877Z,95530.81
2023-03-21T08:51:41.216Z,95535.63
2023-03-21T08:54:09.118Z,95539.22
2023-03-21T08:56:37.560Z,95536.19
2023-03-21T08:59:05.322Z,95528.97
2023-03-21T09:01:34.658Z,95523.66
2023-03-21T09:04:02.560Z,95526.25
2023-03-21T09:06:33.713Z,95524.28
2023-03-21T09:09:01.893Z,95518.25
2023-03-21T09:11:29.764Z,95515.44
2023-03-21T09:13:57.562Z,95513.81
2023-03-21T09:16:25.779Z,95512.72
2023-03-21T09:18:56.898Z,95502.41
2023-03-21T09:21:25.000Z,95506.06
2023-03-21T09:23:55.352Z,95507.88
2023-03-21T09:26:25.046Z,95500.50
2023-03-21T09:28:53.243Z,95501.69
2023-03-21T09:31:23.088Z,95501.00
2023-03-21T09:33:51.655Z,95502.91
2023-03-21T09:36:25.091Z,95495.41
2023-03-21T09:38:53.308Z,95491.19
2023-03-21T09:41:52.979Z,95488.56
2023-03-21T09:44:32.998Z,95496.00
2023-03-21T09:47:07.589Z,95505.47
2023-03-21T09:49:40.015Z,95497.03
2023-03-21T09:52:19.066Z,95492.88
2023-03-21T09:54:47.115Z,95491.78
2023-03-21T09:57:22.465Z,95499.44
2023-03-21T09:59:53.737Z,95499.06
2023-03-21T10:02:36.087Z,95504.34
2023-03-21T10:05:11.993Z,95499.38
2023-03-21T10:07:47.683Z,95486.72
2023-03-21T10:10:18.518Z,95482.84
2023-03-21T10:12:48.377Z,95487.13
2023-03-21T10:15:19.102Z,95478.19
2023-03-21T10:17:52.771Z,95482.19
2023-03-21T10:20:23.421Z,95476.75
2023-03-21T10:22:55.630Z,95478.88
2023-03-21T10:25:29.221Z,95475.81
2023-03-21T10:27:57.081Z,95470.22
2023-03-21T10:30:33.236Z,95463.28
2023-03-21T10:33:05.590Z,95466.31
2023-03-21T10:35:37.286Z,95464.91
2023-03-21T10:38:11.494Z,95453.22
2023-03-21T10:40:39.234Z,95450.03
2023-03-21T10:43:33.971Z,95452.94
2023-03-21T10:46:07.688Z,95454.19
2023-03-21T10:48:37.851Z,95454.03
2023-03-21T10:51:09.277Z,95448.84
2023-03-21T10:53:41.220Z,95449.50
2023-03-21T10:56:11.120Z,95452.44
2023-03-21T10:58:43.395Z,95443.44
2023-03-21T11:01:15.814Z,95437.06
2023-03-21T11:03:46.856Z,95437.31
2023-03-21T11:06:23.595Z,95437.50
2023-03-21T11:08:57.712Z,95435.25
2023-03-21T11:11:28.242Z,95434.25
2023-03-21T11:14:06.680Z,95433.00
2023-03-21T11:16:40.828Z,95437.47
2023-03-21T11:19:17.597Z,95442.50
2023-03-21T11:21:46.265Z,95422.47
2023-03-21T11:24:18.374Z,95419.66
2023-03-21T11:26:48.836Z,95416.34
2023-03-21T11:29:30.370Z,95408.84
2023-03-21T11:32:02.690Z,95410.50
2023-03-21T11:34:40.341Z,95399.00
2023-03-21T11:37:20.812Z,95399.00
2023-03-21T11:39:56.496Z,95393.31
2023-03-21T11:42:31.237Z,95395.97
2023-03-21T11:45:03.181Z,95393.03
2023-03-21T11:47:31.666Z,95383.63
2023-03-21T11:50:04.878Z,95379.41
2023-03-21T11:52:39.729Z,95375.22
2023-03-21T11:55:23.271Z,95381.69
2023-03-21T11:58:13.983Z,95370.97
2023-03-21T12:00:49.894Z,95367.56
2023-03-21T12:03:48.937Z,95357.88
2023-03-21T12:06:25.203Z,95343.16
2023-03-21T12:09:07.094Z,95340.66
2023-03-21T12:11:46.675Z,95337.78
2023-03-21T12:14:23.722Z,95327.88
2023-03-21T12:17:06.326Z,95333.63
2023-03-21T12:20:08.905Z,95322.03
2023-03-21T12:22:45.704Z,95331.50
2023-03-21T12:25:18.471Z,95323.19
2023-03-21T12:27:57.036Z,95309.78
2023-03-21T12:30:34.187Z,95316.97
2023-03-21T12:33:14.919Z,95311.00
2023-03-21T12:35:54.296Z,95310.88
2023-03-21T12:38:27.107Z,95308.56
2023-03-21T12:41:11.631Z,95317.38
2023-03-21T12:43:47.630Z,95312.28
2023-03-21T12:46:23.060Z,95307.72
2023-03-21T12:48:53.729Z,95304.28
2023-03-21T12:51:26.667Z,95298.72
2023-03-21T12:54:01.873Z,95296.78
2023-03-21T12:56:32.840Z,95288.75
2023-03-21T12:59:13.538Z,95286.06
2023-03-21T13:01:44.027Z,95284.50
2023-03-21T13:04:32.646Z,95278.94
2023-03-21T13:07:03.595Z,95274.50
2023-03-21T13:09:37.961Z,95266.44
2023-03-21T13:12:20.611Z,95276.06
2023-03-21T13:15:00.790Z,95265.44
2023-03-21T13:17:36.597Z,95261.91
2023-03-21T13:20:19.198Z,95264.38
2023-03-21T13:22:47.468Z,95260.78
2023-03-21T13:25:20.106Z,95248.25
2023-03-21T13:27:54.124Z,95254.03
2023-03-21T13:30:26.477Z,95251.28
2023-03-21T13:33:06.476Z,95241.41
2023-03-21T13:35:38.471Z,95254.78
2023-03-21T13:38:16.406Z,95240.69
2023-03-21T13:40:48.747Z,95244.13
2023-03-21T13:43:35.881Z,95247.50
2023-03-21T13:46:10.061Z,95244.78
2023-03-21T13:48:59.069Z,95244.44
2023-03-21T13:51:43.953Z,95252.25
2023-03-21T13:54:20.645Z,95238.13
2023-03-21T13:56:54.068Z,95238.50
2023-03-21T13:59:38.498Z,95240.06
2023-03-21T14:02:31.028Z,95235.09
2023-03-21T14:05:05.712Z,95243.88
2023-03-21T14:07:36.683Z,95235.59
2023-03-21T14:10:09.593Z,95234.13
2023-03-21T14:12:40.719Z,95226.53
2023-03-21T14:15:17.164Z,95229.53
2023-03-21T14:17:54.373Z,95229.97
2023-03-21T14:20:25.696Z,95214.91
2023-03-21T14:22:54.094Z,95221.19
2023-03-21T14:25:27.238Z,95219.94
2023-03-21T14:27:59.582Z,95223.06
2023-03-21T14:30:30.907Z,95214.94
2023-03-21T14:33:04.547Z,95211.94
2023-03-21T14:35:34.048Z,95219.16
2023-03-21T14:38:04.532Z,95214.91
2023-03-21T14:40:32.647Z,95208.91
2023-03-21T14:43:06.243Z,95209.88
2023-03-21T14:45:37.145Z,95203.66
2023-03-21T14:48:09.714Z,95208.72
2023-03-21T14:50:41.887Z,95216.09
2023-03-21T14:53:17.519Z,95206.19
2023-03-21T14:55:46.248Z,95203.78
2023-03-21T14:58:16.866Z,95198.47
2023-03-21T15:00:45.021Z,95200.28
2023-03-21T15:03:16.213Z,95196.78
2023-03-21T15:05:45.009Z,95194.13
2023-03-21T15:08:16.762Z,95198.94
2023-03-21T15:11:06.344Z,95202.44
2023-03-21T15:13:37.476Z,95202.63
2023-03-21T15:16:06.341Z,95197.25
2023-03-21T15:18:38.221Z,95202.16
2023-03-21T15:21:11.088Z,95211.09
2023-03-21T15:23:42.684Z,95206.66
2023-03-21T15:26:15.884Z,95208.72
2023-03-21T15:28:46.544Z,95205.94
2023-03-21T15:31:19.830Z,95207.19
2023-03-21T15:34:38.423Z,95204.13
2023-03-21T15:38:23.822Z,95199.91
2023-03-21T15:44:53.814Z,95199.25
2023-03-21T15:47:55.009Z,95195.19
2023-03-21T15:51:35.576Z,95193.94
2023-03-21T16:05:27.131Z,95197.22
2023-03-21T16:08:47.768Z,95199.53
2023-03-21T16:15:33.647Z,95201.81
2023-03-21T16:18:17.528Z,95203.59
2023-03-21T16:20:56.762Z,95212.28
2023-03-21T16:27:26.801Z,95220.38
2023-03-21T16:30:46.677Z,95218.44
2023-03-21T16:33:56.877Z,95222.13
2023-03-21T16:36:37.542Z,95220.38
2023-03-21T16:39:26.714Z,95224.53
2023-03-21T16:41:57.169Z,95223.72
2023-03-21T16:44:29.249Z,95223.53
2023-03-21T16:46:56.971Z,95224.00
2023-03-21T16:49:26.757Z,95226.44
2023-03-21T16:51:55.955Z,95226.09
2023-03-21T16:54:27.035Z,95230.25
2023-03-21T16:57:00.911Z,95226.06
2023-03-21T16:59:33.088Z,95236.31
2023-03-21T17:02:34.422Z,95229.56
2023-03-21T17:05:16.031Z,95228.53
2023-03-21T17:07:47.136Z,95230.44
2023-03-21T17:10:23.861Z,95227.66
2023-03-21T17:12:51.680Z,95228.56
2023-03-21T17:15:26.505Z,95234.94
2023-03-21T17:18:11.665Z,95229.75
2023-03-21T17:20:44.374Z,95235.09
2023-03-21T17:23:19.727Z,95232.66
2023-03-21T17:25:53.554Z,95235.31
2023-03-21T17:29:07.287Z,95227.50
2023-03-21T17:31:42.540Z,95240.59
2023-03-21T17:34:16.175Z,95244.94
2023-03-21T17:37:02.695Z,95242.97
2023-03-21T17:39:34.758Z,95237.72
2023-03-21T17:42:12.868Z,95235.25
2023-03-21T17:44:40.647Z,95236.91
2023-03-21T17:47:18.523Z,95246.69
2023-03-21T17:50:07.127Z,95236.63
2023-03-21T17:55:19.911Z,95248.81
2023-03-21T17:57:48.610Z,95242.75
2023-03-21T18:00:20.853Z,95245.88
2023-03-21T18:02:50.727Z,95240.53
2023-03-21T18:05:18.767Z,95252.28
2023-03-21T18:10:37.811Z,95253.69
2023-03-21T18:13:05.765Z,95255.50
2023-03-21T18:15:34.823Z,95255.34
2023-03-21T18:18:06.753Z,95263.47
2023-03-21T18:20:54.537Z,95262.22
2023-03-21T18:23:22.726Z,95264.53
2023-03-21T18:25:52.424Z,95270.38
2023-03-21T18:28:21.496Z,95265.66
2023-03-21T18:31:09.553Z,95272.97
2023-03-21T18:33:45.040Z,95270.34
2023-03-21T18:36:36.799Z,95272.00
2023-03-21T18:39:30.341Z,95271.81
2023-03-21T18:43:32.795Z,95280.53
2023-03-21T18:45:40.494Z,95281.94
2023-03-21T18:48:16.176Z,95283.03
2023-03-21T18:53:30.003Z,95269.41
2023-03-21T18:56:00.760Z,95272.97
2023-03-21T18:59:32.491Z,95281.72
2023-03-21T19:02:18.671Z,95283.63
2023-03-21T19:07:49.683Z,95283.84
2023-03-21T19:10:38.069Z,95295.50
2023-03-21T19:13:07.058Z,95293.66
2023-03-21T19:21:01.288Z,95290.94
2023-03-21T19:23:40.793Z,95289.78
2023-03-21T19:26:18.055Z,95276.56
2023-03-21T19:28:46.040Z,95276.84
2023-03-21T19:31:13.898Z,95283.72
2023-03-21T19:33:41.580Z,95285.63
2023-03-21T19:36:20.914Z,95295.69
2023-03-21T19:38:51.737Z,95283.56
2023-03-21T19:41:20.420Z,95291.19
2023-03-21T19:43:54.842Z,95306.38
2023-03-21T19:46:25.599Z,95293.91
2023-03-21T19:48:56.594Z,95289.72
2023-03-21T19:51:29.493Z,95289.78
2023-03-21T19:53:59.101Z,95301.22
2023-03-21T19:56:27.887Z,95293.44
2023-03-21T19:58:56.002Z,95297.00
2023-03-21T20:01:25.053Z,95303.38
2023-03-21T20:03:53.007Z,95298.50
2023-03-21T20:06:22.539Z,95294.50
2023-03-21T20:09:27.298Z,95301.09
2023-03-21T20:11:40.160Z,95298.47
2023-03-21T20:14:07.835Z,95303.16
2023-03-21T20:16:36.971Z,95306.44
2023-03-21T20:19:05.909Z,95314.88
2023-03-21T20:21:44.447Z,95309.16
2023-03-21T20:24:16.790Z,95313.25
2023-03-21T20:26:47.096Z,95314.09
2023-03-21T20:32:02.503Z,95310.44
2023-03-21T20:34:30.751Z,95313.09
2023-03-21T20:36:59.152Z,95306.94
2023-03-21T20:39:29.487Z,95308.31
2023-03-21T20:41:59.660Z,95303.31
2023-03-21T20:44:51.893Z,95311.78
2023-03-21T20:47:15.561Z,95309.66
2023-03-21T20:49:43.229Z,95311.63
2023-03-21T20:54:58.797Z,95318.66
2023-03-21T20:57:28.344Z,95322.75
2023-03-21T20:59:56.308Z,95315.69
2023-03-21T21:02:24.809Z,95325.19
2023-03-21T21:05:23.738Z,95320.03
2023-03-21T21:07:42.387Z,95319.50
2023-03-21T21:10:11.778Z,95312.94
2023-03-21T21:12:45.020Z,95326.03
2023-03-21T21:15:16.615Z,95315.28
2023-03-21T21:20:33.643Z,95316.94
2023-03-21T21:23:01.535Z,95323.69
2023-03-21T21:25:30.554Z,95327.50
2023-03-21T21:28:01.570Z,95327.78
2023-03-21T21:30:30.333Z,95323.75
2023-03-21T21:32:59.673Z,95328.34
2023-03-21T21:35:27.554Z,95329.16
2023-03-21T21:37:55.973Z,95322.94
2023-03-21T21:40:24.200Z,95318.69
2023-03-21T21:42:52.070Z,95322.78
2023-03-21T21:45:21.434Z,95324.13
2023-03-21T21:47:49.221Z,95321.41
2023-03-21T21:50:16.945Z,95318.97
2023-03-21T21:52:52.577Z,95316.28
2023-03-21T21:55:20.572Z,95313.56
2023-03-21T21:57:50.648Z,95309.78
2023-03-21T22:00:21.605Z,95313.28
2023-03-21T22:02:49.382Z,95317.09
2023-03-21T22:05:18.873Z,95314.41
2023-03-21T22:07:46.685Z,95314.44
2023-03-21T22:10:14.962Z,95319.59
2023-03-21T22:12:42.724Z,95318.03
2023-03-21T22:15:11.975Z,95319.13
2023-03-21T22:17:42.042Z,95322.16
2023-03-21T22:20:12.664Z,95321.59
2023-03-21T22:22:40.689Z,95320.84
2023-03-21T22:25:11.822Z,95331.66
2023-03-21T22:27:39.543Z,95330.84
2023-03-21T22:30:09.597Z,95330.88
2023-03-21T22:32:39.366Z,95333.56
2023-03-21T22:35:09.837Z,95330.31
2023-03-21T22:37:40.058Z,95324.41
2023-03-21T22:40:09.874Z,95327.91
2023-03-21T22:42:39.644Z,95331.69
2023-03-21T22:45:09.650Z,95337.38
2023-03-21T22:47:37.483Z,95339.53
2023-03-21T22:50:07.412Z,95336.84
2023-03-21T22:52:36.551Z,95333.06
2023-03-21T22:59:55.894Z,95346.53
2023-03-21T23:02:23.561Z,95336.28
2023-03-21T23:04:51.269Z,95340.31
2023-03-21T23:07:19.237Z,95346.50
2023-03-21T23:09:46.951Z,95342.72
2023-03-21T23:12:14.925Z,95349.22
2023-03-21T23:14:42.626Z,95347.84
2023-03-21T23:17:12.461Z,95351.09
2023-03-21T23:19:41.203Z,95347.31
2023-03-21T23:22:09.465Z,95338.13
2023-03-21T23:24:37.184Z,95341.06
2023-03-21T23:27:05.146Z,95343.50
2023-03-21T23:29:32.930Z,95342.69
2023-03-21T23:32:00.888Z,95339.44
2023-03-21T23:34:30.327Z,95337.03
2023-03-21T23:36:58.330Z,95338.63
2023-03-21T23:39:26.468Z,95344.28
2023-03-21T23:41:54.151Z,95339.41
2023-03-21T23:44:21.835Z,95344.19
2023-03-21T23:46:49.534Z,95338.53
2023-03-21T23:49:17.332Z,95339.56
2023-03-21T23:51:47.065Z,95341.16
2023-03-21T23:54:14.905Z,95339.28
2023-03-21T23:56:43.116Z,95337.41
2023-03-21T23:59:10.857Z,95332.84
